Silver Shadow — C6FN6 — position and weather

sailwx.info

Track history (hours):
 
Tides and Currents Weather Stations Pressure Air Temp Water Temp Dewpoint Dewpoint Depression Visibility Wind Speed Wind Dir Waves Ship Positions

Silver Shadow

Operator: V Ships Leisure SAM

Last reported at 2020-Mar-07 23:00 UTC. Time now 2020-Apr-05 13:04 UTC.
Position S 23°06' W 042°55'.
Warning: this ship's position is 28 days out of date.

Length 186 m; draft 6.2 m.

Type: Ship. MMSI: 308628000.

Date/timePositionNaut miles runAvg speedWind from/ knotsBaromVisibWave heightAir tempDewpointWater temp
2020-Mar-07 23:00S 23°06' W 042°55'713.1
2020-Mar-07 22:30S 23°03' W 043°02'13 5.1
2020-Mar-07 20:00S 22°54' W 043°11'0 0.0
2020-Mar-07 19:00S 22°54' W 043°11'0 0.0
2020-Mar-07 18:00S 22°54' W 043°11'0 0.0
2020-Mar-07 17:30S 22°54' W 043°11'0 0.0
2020-Mar-07 15:00S 22°54' W 043°11'0 0.0
2020-Mar-07 14:24S 22°54' W 043°11'0 0.0
2020-Mar-07 14:00S 22°54' W 043°11'0 0.0
2020-Mar-07 13:30S 22°54' W 043°11'0 0.0
2020-Mar-07 12:30S 22°54' W 043°11'0 0.0
2020-Mar-07 11:00S 22°54' W 043°11'0 0.0
2020-Mar-07 10:30S 22°54' W 043°11'0 0.0
2020-Mar-07 09:30S 22°54' W 043°11'0 0.0
2020-Mar-07 08:30S 22°54' W 043°11'0 0.0
2020-Mar-07 05:00S 22°54' W 043°11'0 0.0
2020-Mar-07 04:00S 22°54' W 043°11'0 0.0
2020-Mar-07 03:30S 22°54' W 043°11'0 0.0
2020-Mar-07 02:30S 22°54' W 043°11'0 0.0
2020-Mar-06 23:30S 22°54' W 043°11'0 0.0
2020-Mar-06 22:30S 22°54' W 043°11'0 0.0
2020-Mar-06 19:00S 22°54' W 043°11'0 0.0
2020-Mar-06 18:00S 22°54' W 043°11'0 0.0
2020-Mar-06 16:00S 22°54' W 043°11'0 0.0
2020-Mar-06 14:00S 22°54' W 043°11'0 0.0
2020-Mar-06 13:00S 22°54' W 043°11'3 0.9
2020-Mar-06 09:30S 22°56' W 043°08'713.2
2020-Mar-06 09:00S 23°02' W 043°06'715.0
2020-Mar-06 08:30S 23°06' W 042°59'13 0.5
2020-Mar-05 05:23S 23°10' W 042°46'2316.6
2020-Mar-05 04:01S 23°12' W 043°10'  
2020-Mar-01 03:28S 34°48' W 053°51'55 7.8
2020-Feb-29 20:20S 34°56' W 054°58'0 0.0
2020-Feb-29 17:29S 34°56' W 054°58'0 0.0
2020-Feb-29 16:47S 34°56' W 054°58'62 4.3
2020-Feb-29 02:30S 34°57' W 056°13'3 2.7
2020-Feb-29 01:29S 34°54' W 056°13'0 0.0
2020-Feb-28 20:29S 34°54' W 056°13'0 0.0
2020-Feb-28 19:59S 34°54' W 056°13'0 0.0
2020-Feb-28 19:26S 34°54' W 056°13'0 0.0
2020-Feb-28 18:59S 34°54' W 056°13'0 0.0
2020-Feb-28 17:26S 34°54' W 056°13'0 0.0
2020-Feb-28 16:59S 34°54' W 056°13'0 0.0
2020-Feb-28 13:26S 34°54' W 056°13'0 0.0
2020-Feb-28 12:59S 34°54' W 056°13'0 0.0
2020-Feb-28 11:59S 34°54' W 056°13'12 4.0
2020-Feb-28 09:00S 35°02' W 056°02'5 5.2
2020-Feb-28 08:00S 35°07' W 056°05'1211.7
2020-Feb-28 07:00S 35°10' W 056°19'3212.4
2020-Feb-28 04:24S 35°10' W 056°58'  
Track history (hours):
 
Tides and Currents Weather Stations Pressure Air Temp Water Temp Dewpoint Dewpoint Depression Visibility Wind Speed Wind Dir Waves Ship Positions

Silver Shadow

Operator: V Ships Leisure SAM

Last reported at 2020-Mar-07 23:00 UTC. Time now 2020-Apr-05 13:04 UTC.
Position S 23°06' W 042°55'.
Warning: this ship's position is 28 days out of date.

Length 186 m; draft 6.2 m.

Type: Ship. MMSI: 308628000.

Date/timePositionNaut miles runAvg speedWind from/ knotsBaromVisibWave heightAir tempDewpointWater temp
2020-Mar-07 23:00S 23°06' W 042°55'713.1
2020-Mar-07 22:30S 23°03' W 043°02'13 5.1
2020-Mar-07 20:00S 22°54' W 043°11'0 0.0
2020-Mar-07 19:00S 22°54' W 043°11'0 0.0
2020-Mar-07 18:00S 22°54' W 043°11'0 0.0
2020-Mar-07 17:30S 22°54' W 043°11'0 0.0
2020-Mar-07 15:00S 22°54' W 043°11'0 0.0
2020-Mar-07 14:24S 22°54' W 043°11'0 0.0
2020-Mar-07 14:00S 22°54' W 043°11'0 0.0
2020-Mar-07 13:30S 22°54' W 043°11'0 0.0
2020-Mar-07 12:30S 22°54' W 043°11'0 0.0
2020-Mar-07 11:00S 22°54' W 043°11'0 0.0
2020-Mar-07 10:30S 22°54' W 043°11'0 0.0
2020-Mar-07 09:30S 22°54' W 043°11'0 0.0
2020-Mar-07 08:30S 22°54' W 043°11'0 0.0
2020-Mar-07 05:00S 22°54' W 043°11'0 0.0
2020-Mar-07 04:00S 22°54' W 043°11'0 0.0
2020-Mar-07 03:30S 22°54' W 043°11'0 0.0
2020-Mar-07 02:30S 22°54' W 043°11'0 0.0
2020-Mar-06 23:30S 22°54' W 043°11'0 0.0
2020-Mar-06 22:30S 22°54' W 043°11'0 0.0
2020-Mar-06 19:00S 22°54' W 043°11'0 0.0
2020-Mar-06 18:00S 22°54' W 043°11'0 0.0
2020-Mar-06 16:00S 22°54' W 043°11'0 0.0
2020-Mar-06 14:00S 22°54' W 043°11'0 0.0
2020-Mar-06 13:00S 22°54' W 043°11'3 0.9
2020-Mar-06 09:30S 22°56' W 043°08'713.2
2020-Mar-06 09:00S 23°02' W 043°06'715.0
2020-Mar-06 08:30S 23°06' W 042°59'13 0.5
2020-Mar-05 05:23S 23°10' W 042°46'2316.6
2020-Mar-05 04:01S 23°12' W 043°10'  
2020-Mar-01 03:28S 34°48' W 053°51'55 7.8
2020-Feb-29 20:20S 34°56' W 054°58'0 0.0
2020-Feb-29 17:29S 34°56' W 054°58'0 0.0
2020-Feb-29 16:47S 34°56' W 054°58'62 4.3
2020-Feb-29 02:30S 34°57' W 056°13'3 2.7
2020-Feb-29 01:29S 34°54' W 056°13'0 0.0
2020-Feb-28 20:29S 34°54' W 056°13'0 0.0
2020-Feb-28 19:59S 34°54' W 056°13'0 0.0
2020-Feb-28 19:26S 34°54' W 056°13'0 0.0
2020-Feb-28 18:59S 34°54' W 056°13'0 0.0
2020-Feb-28 17:26S 34°54' W 056°13'0 0.0
2020-Feb-28 16:59S 34°54' W 056°13'0 0.0
2020-Feb-28 13:26S 34°54' W 056°13'0 0.0
2020-Feb-28 12:59S 34°54' W 056°13'0 0.0
2020-Feb-28 11:59S 34°54' W 056°13'12 4.0
2020-Feb-28 09:00S 35°02' W 056°02'5 5.2
2020-Feb-28 08:00S 35°07' W 056°05'1211.7
2020-Feb-28 07:00S 35°10' W 056°19'3212.4
2020-Feb-28 04:24S 35°10' W 056°58'  

Dump ship's entire track history